Tomato, Arkansas
Current Conditions -  °F | °C
As of 8:53 PM on Friday 21 Nov 2014 (Local Time) from KHKA Reporting Station
Light Rain Light Rain  
Wind Chill: 45°   Ceiling: 8500
Heat Index: 48°   Visibility: 10mi
Dew Point: 39°   Wind: 6mph
Humidity: 71%   Direction: 120°ESE
Pressure: 30.29"   Gusts: NA
Location:  35.84°N, 89.74°W
Report Text: KHKA 220253Z AUTO 12005KT 10SM -RA FEW050 OVC085 09/04 A3029 RMK AO2 RAB36 SLP258 P0000 60000 T00890039 56008 $
Loading
Personal Weather Stations






























Interactive Weather Map New forecast layout! Learn more

10-Day Weather Forecast

Advertisements
Track Severe Weather on mobile